Toivola, Minnesota
Current Conditions -  °F | °C
As of 7:53 PM on Wednesday 22 Oct 2014 (Local Time) from KHIB Reporting Station
Few Clouds Few Clouds  
Wind Chill: 52°   Ceiling: Unl
Heat Index: 52°   Visibility: 10mi
Dew Point: 38°   Wind: 7mph
Humidity: 59%   Direction: 160°SSE
Pressure: 30.02"   Gusts: NA
Location:  47.1169°N, 92.8519°W
Report Text: KHIB 230053Z AUTO 16006KT 10SM FEW080 11/03 A3002 RMK AO2 SLP175 T01110033
Loading
Personal Weather Stations






























Interactive Weather Map
Tropical Storm Tracking
New forecast layout! Learn more

10-Day Weather Forecast

Advertisements
Track Severe Weather on mobile